首页
METAR-TAF:

METAR-TAF

机场 :

內夫謝希爾, 土耳其

纬度: 38-46-12N, 经度: 034-32-30E, 海拔: 945米

当前天气观测

该预报发布于17分钟前的12:50 UTC
风速4节,风向,在北转东北东南之间变化
温度 34°C
湿度 18%
气压 1007 hPa
能见度10公里或以上
散云层高于4000英尺

METAR: LTAZ 161250Z 09004KT 020V130 9999 SCT040 34/06 Q1007 RMK RWY29 28004KT 230V350

时间: 16:07 (13:07 UTC)

预报

该预报发布于2小时和27分钟前的10:40 UTC
预报有效从16日的 12点(UTC)到 17日的 12点(UTC)
风速2节,风向多变
能见度10公里或以上
散云层高于4000英尺
几率 40% :
短暂存在
从 16日的 16点(UTC)到 16日的 20点(UTC)
风速15节,风向多变,有时为25节阵风
少量云层高于2500英尺, 积雨云.
多云层高于3000英尺
雷暴, 小雨
成为
从 16日的 22点(UTC)到 16日的 24点(UTC)
能见度10公里或以上
1500米以下无云,无积雨云
成为
从 17日的 06点(UTC)到 17日的 09点(UTC)
风速12节,风向
少量云层高于4000英尺

TAF: LTAZ 161040Z 1612/1712 VRB02KT 9999 SCT040 PROB40 TEMPO 1616/1620 VRB15G25KT -TSRA FEW025CB BKN030 BECMG 1622/1624 CAVOK BECMG 1706/1709 36012KT FEW040

超过4000个机场的气象观测和天气预报(METAR&TAF报告)。

可查询的气象台以黄色和红色小点在地图上表示。

将鼠标移到小点上方,可查看气象台名称。

然后点击查看天气观测和预报。

如需切换地图:点击带黑十字的绿色按钮放大地图;点击带横线的绿色按钮缩小地图;或者点击绿色箭头查看邻近地区的地图。


METAR-TAF: